sensor_id;sensor_type;location;lat;lon;timestamp;P1;durP1;ratioP1;P2;durP2;ratioP2
3563;SDS011;1796;52.388;13.096;2024-03-06T00:00:57;28.77;;;14.50;;
3563;SDS011;1796;52.388;13.096;2024-03-06T00:03:24;28.67;;;14.20;;
3563;SDS011;1796;52.388;13.096;2024-03-06T00:05:51;27.50;;;14.93;;
3563;SDS011;1796;52.388;13.096;2024-03-06T00:08:20;23.97;;;13.33;;
3563;SDS011;1796;52.388;13.096;2024-03-06T00:10:47;24.80;;;14.97;;
3563;SDS011;1796;52.388;13.096;2024-03-06T00:13:14;22.10;;;13.63;;
3563;SDS011;1796;52.388;13.096;2024-03-06T00:15:40;24.20;;;14.57;;
3563;SDS011;1796;52.388;13.096;2024-03-06T00:18:07;33.43;;;14.23;;
3563;SDS011;1796;52.388;13.096;2024-03-06T00:20:35;27.43;;;14.00;;
3563;SDS011;1796;52.388;13.096;2024-03-06T00:23:02;28.50;;;14.90;;
3563;SDS011;1796;52.388;13.096;2024-03-06T00:25:30;26.63;;;14.33;;
3563;SDS011;1796;52.388;13.096;2024-03-06T00:27:57;20.00;;;12.40;;
3563;SDS011;1796;52.388;13.096;2024-03-06T00:30:24;33.60;;;14.73;;
3563;SDS011;1796;52.388;13.096;2024-03-06T00:32:51;25.80;;;14.40;;
3563;SDS011;1796;52.388;13.096;2024-03-06T00:35:18;27.03;;;14.20;;
3563;SDS011;1796;52.388;13.096;2024-03-06T00:37:45;22.00;;;12.97;;
3563;SDS011;1796;52.388;13.096;2024-03-06T00:40:12;24.67;;;13.60;;
3563;SDS011;1796;52.388;13.096;2024-03-06T00:42:41;28.90;;;15.60;;
3563;SDS011;1796;52.388;13.096;2024-03-06T00:45:08;29.00;;;14.53;;
3563;SDS011;1796;52.388;13.096;2024-03-06T00:47:36;25.10;;;13.77;;
3563;SDS011;1796;52.388;13.096;2024-03-06T00:50:03;25.97;;;14.30;;
3563;SDS011;1796;52.388;13.096;2024-03-06T00:52:32;23.80;;;14.27;;
3563;SDS011;1796;52.388;13.096;2024-03-06T00:54:59;31.13;;;15.27;;
3563;SDS011;1796;52.388;13.096;2024-03-06T00:57:26;30.57;;;14.97;;
3563;SDS011;1796;52.388;13.096;2024-03-06T00:59:54;27.50;;;14.80;;
3563;SDS011;1796;52.388;13.096;2024-03-06T01:02:21;22.57;;;13.60;;
3563;SDS011;1796;52.388;13.096;2024-03-06T01:04:48;24.97;;;14.90;;
3563;SDS011;1796;52.388;13.096;2024-03-06T01:07:15;26.00;;;13.50;;
3563;SDS011;1796;52.388;13.096;2024-03-06T01:09:42;30.27;;;13.10;;
3563;SDS011;1796;52.388;13.096;2024-03-06T01:12:09;27.10;;;14.70;;
3563;SDS011;1796;52.388;13.096;2024-03-06T01:14:36;23.17;;;13.60;;
3563;SDS011;1796;52.388;13.096;2024-03-06T01:17:04;23.80;;;13.97;;
3563;SDS011;1796;52.388;13.096;2024-03-06T01:19:31;27.40;;;13.57;;
3563;SDS011;1796;52.388;13.096;2024-03-06T01:21:58;25.20;;;15.30;;
3563;SDS011;1796;52.388;13.096;2024-03-06T01:24:25;33.00;;;15.03;;
3563;SDS011;1796;52.388;13.096;2024-03-06T01:26:51;29.83;;;14.73;;
3563;SDS011;1796;52.388;13.096;2024-03-06T01:29:18;26.63;;;14.33;;
3563;SDS011;1796;52.388;13.096;2024-03-06T01:31:45;30.17;;;14.90;;
3563;SDS011;1796;52.388;13.096;2024-03-06T01:34:13;28.60;;;14.17;;
3563;SDS011;1796;52.388;13.096;2024-03-06T01:36:40;27.27;;;14.20;;
3563;SDS011;1796;52.388;13.096;2024-03-06T01:39:06;33.80;;;15.90;;
3563;SDS011;1796;52.388;13.096;2024-03-06T01:41:34;26.00;;;13.50;;
3563;SDS011;1796;52.388;13.096;2024-03-06T01:44:01;24.23;;;13.47;;
3563;SDS011;1796;52.388;13.096;2024-03-06T01:46:29;24.13;;;15.00;;
3563;SDS011;1796;52.388;13.096;2024-03-06T01:48:56;33.00;;;13.70;;
3563;SDS011;1796;52.388;13.096;2024-03-06T01:51:24;23.77;;;12.80;;
3563;SDS011;1796;52.388;13.096;2024-03-06T01:53:52;25.13;;;13.80;;
3563;SDS011;1796;52.388;13.096;2024-03-06T01:56:19;28.00;;;13.90;;
3563;SDS011;1796;52.388;13.096;2024-03-06T01:58:46;26.50;;;12.50;;
3563;SDS011;1796;52.388;13.096;2024-03-06T02:01:14;27.50;;;13.57;;
3563;SDS011;1796;52.388;13.096;2024-03-06T02:03:42;30.23;;;14.50;;
3563;SDS011;1796;52.388;13.096;2024-03-06T02:06:10;23.23;;;13.87;;
3563;SDS011;1796;52.388;13.096;2024-03-06T02:08:41;22.63;;;12.80;;
3563;SDS011;1796;52.388;13.096;2024-03-06T02:11:08;24.90;;;13.77;;
3563;SDS011;1796;52.388;13.096;2024-03-06T02:13:35;25.27;;;13.77;;
3563;SDS011;1796;52.388;13.096;2024-03-06T02:16:01;27.23;;;13.70;;
3563;SDS011;1796;52.388;13.096;2024-03-06T02:18:29;24.30;;;12.33;;
3563;SDS011;1796;52.388;13.096;2024-03-06T02:20:57;43.30;;;15.20;;
3563;SDS011;1796;52.388;13.096;2024-03-06T02:23:24;23.43;;;13.50;;
3563;SDS011;1796;52.388;13.096;2024-03-06T02:25:51;28.13;;;13.67;;
3563;SDS011;1796;52.388;13.096;2024-03-06T02:28:18;25.27;;;13.77;;
3563;SDS011;1796;52.388;13.096;2024-03-06T02:30:45;26.57;;;14.10;;
3563;SDS011;1796;52.388;13.096;2024-03-06T02:33:15;29.73;;;14.73;;
3563;SDS011;1796;52.388;13.096;2024-03-06T02:35:43;26.77;;;14.23;;
3563;SDS011;1796;52.388;13.096;2024-03-06T02:38:12;21.53;;;13.00;;
3563;SDS011;1796;52.388;13.096;2024-03-06T02:40:39;20.77;;;12.47;;
3563;SDS011;1796;52.388;13.096;2024-03-06T02:43:08;24.70;;;13.73;;
3563;SDS011;1796;52.388;13.096;2024-03-06T02:45:35;22.67;;;13.27;;
3563;SDS011;1796;52.388;13.096;2024-03-06T02:48:02;34.97;;;13.77;;
3563;SDS011;1796;52.388;13.096;2024-03-06T02:50:30;27.50;;;15.17;;
3563;SDS011;1796;52.388;13.096;2024-03-06T02:52:57;25.53;;;14.90;;
3563;SDS011;1796;52.388;13.096;2024-03-06T02:55:25;23.77;;;13.10;;
3563;SDS011;1796;52.388;13.096;2024-03-06T02:57:52;24.67;;;14.50;;
3563;SDS011;1796;52.388;13.096;2024-03-06T03:00:19;27.03;;;13.93;;
3563;SDS011;1796;52.388;13.096;2024-03-06T03:02:46;28.07;;;12.73;;
3563;SDS011;1796;52.388;13.096;2024-03-06T03:05:13;22.00;;;13.10;;
3563;SDS011;1796;52.388;13.096;2024-03-06T03:07:41;25.20;;;13.47;;
3563;SDS011;1796;52.388;13.096;2024-03-06T03:10:08;20.67;;;12.13;;
3563;SDS011;1796;52.388;13.096;2024-03-06T03:12:39;26.67;;;15.00;;
3563;SDS011;1796;52.388;13.096;2024-03-06T03:15:06;22.80;;;12.40;;
3563;SDS011;1796;52.388;13.096;2024-03-06T03:17:33;26.50;;;14.20;;
3563;SDS011;1796;52.388;13.096;2024-03-06T03:20:00;25.37;;;12.33;;
3563;SDS011;1796;52.388;13.096;2024-03-06T03:22:34;23.37;;;12.20;;
3563;SDS011;1796;52.388;13.096;2024-03-06T03:25:01;25.30;;;13.80;;
3563;SDS011;1796;52.388;13.096;2024-03-06T03:27:32;21.03;;;11.90;;
3563;SDS011;1796;52.388;13.096;2024-03-06T03:30:00;20.57;;;12.23;;
3563;SDS011;1796;52.388;13.096;2024-03-06T03:32:28;23.63;;;13.37;;
3563;SDS011;1796;52.388;13.096;2024-03-06T03:34:55;30.53;;;13.93;;
3563;SDS011;1796;52.388;13.096;2024-03-06T03:37:21;33.00;;;13.00;;
3563;SDS011;1796;52.388;13.096;2024-03-06T03:39:48;28.00;;;14.03;;
3563;SDS011;1796;52.388;13.096;2024-03-06T03:42:15;29.60;;;13.30;;
3563;SDS011;1796;52.388;13.096;2024-03-06T03:44:42;27.63;;;13.40;;
3563;SDS011;1796;52.388;13.096;2024-03-06T03:47:10;22.20;;;12.60;;
3563;SDS011;1796;52.388;13.096;2024-03-06T03:49:37;23.07;;;13.00;;
3563;SDS011;1796;52.388;13.096;2024-03-06T03:52:04;24.10;;;13.60;;
3563;SDS011;1796;52.388;13.096;2024-03-06T03:54:31;22.40;;;12.20;;
3563;SDS011;1796;52.388;13.096;2024-03-06T03:56:58;25.33;;;13.40;;
3563;SDS011;1796;52.388;13.096;2024-03-06T03:59:25;23.40;;;13.83;;
3563;SDS011;1796;52.388;13.096;2024-03-06T04:01:52;29.70;;;12.97;;
3563;SDS011;1796;52.388;13.096;2024-03-06T04:04:20;26.03;;;14.03;;
3563;SDS011;1796;52.388;13.096;2024-03-06T04:06:47;30.57;;;13.80;;
3563;SDS011;1796;52.388;13.096;2024-03-06T04:09:14;31.20;;;15.20;;
3563;SDS011;1796;52.388;13.096;2024-03-06T04:11:41;26.83;;;14.43;;
3563;SDS011;1796;52.388;13.096;2024-03-06T04:14:08;28.70;;;15.07;;
3563;SDS011;1796;52.388;13.096;2024-03-06T04:16:35;26.10;;;12.83;;
3563;SDS011;1796;52.388;13.096;2024-03-06T04:19:02;24.90;;;13.50;;
3563;SDS011;1796;52.388;13.096;2024-03-06T04:21:31;38.23;;;15.17;;
3563;SDS011;1796;52.388;13.096;2024-03-06T04:23:58;28.40;;;13.50;;
3563;SDS011;1796;52.388;13.096;2024-03-06T04:26:24;25.90;;;13.57;;
3563;SDS011;1796;52.388;13.096;2024-03-06T04:28:52;29.20;;;13.37;;
3563;SDS011;1796;52.388;13.096;2024-03-06T04:31:19;24.87;;;13.53;;
3563;SDS011;1796;52.388;13.096;2024-03-06T04:33:46;30.13;;;14.50;;
3563;SDS011;1796;52.388;13.096;2024-03-06T04:36:13;25.03;;;13.53;;
3563;SDS011;1796;52.388;13.096;2024-03-06T04:38:41;28.57;;;13.37;;
3563;SDS011;1796;52.388;13.096;2024-03-06T04:41:08;24.67;;;13.70;;
3563;SDS011;1796;52.388;13.096;2024-03-06T04:43:35;19.53;;;12.30;;
3563;SDS011;1796;52.388;13.096;2024-03-06T04:46:03;26.70;;;13.87;;
3563;SDS011;1796;52.388;13.096;2024-03-06T04:48:30;31.20;;;14.47;;
3563;SDS011;1796;52.388;13.096;2024-03-06T04:50:56;23.27;;;12.57;;
3563;SDS011;1796;52.388;13.096;2024-03-06T04:53:24;24.73;;;13.27;;
3563;SDS011;1796;52.388;13.096;2024-03-06T04:55:52;33.07;;;14.50;;
3563;SDS011;1796;52.388;13.096;2024-03-06T04:58:19;26.10;;;15.70;;
3563;SDS011;1796;52.388;13.096;2024-03-06T05:00:45;28.40;;;14.97;;
3563;SDS011;1796;52.388;13.096;2024-03-06T05:03:12;21.00;;;12.87;;
3563;SDS011;1796;52.388;13.096;2024-03-06T05:05:40;22.93;;;13.40;;
3563;SDS011;1796;52.388;13.096;2024-03-06T05:08:07;22.50;;;13.80;;
3563;SDS011;1796;52.388;13.096;2024-03-06T05:10:34;27.73;;;13.37;;
3563;SDS011;1796;52.388;13.096;2024-03-06T05:13:03;25.07;;;12.90;;
3563;SDS011;1796;52.388;13.096;2024-03-06T05:15:30;27.13;;;13.30;;
3563;SDS011;1796;52.388;13.096;2024-03-06T05:17:57;29.17;;;13.90;;
3563;SDS011;1796;52.388;13.096;2024-03-06T05:20:25;24.90;;;13.20;;
3563;SDS011;1796;52.388;13.096;2024-03-06T05:22:52;32.70;;;14.17;;
3563;SDS011;1796;52.388;13.096;2024-03-06T05:25:19;24.57;;;13.50;;
3563;SDS011;1796;52.388;13.096;2024-03-06T05:27:46;22.83;;;13.50;;
3563;SDS011;1796;52.388;13.096;2024-03-06T05:30:15;26.17;;;14.67;;
3563;SDS011;1796;52.388;13.096;2024-03-06T05:32:42;35.80;;;17.73;;
3563;SDS011;1796;52.388;13.096;2024-03-06T05:35:09;31.20;;;17.33;;
3563;SDS011;1796;52.388;13.096;2024-03-06T05:37:37;29.77;;;15.43;;
3563;SDS011;1796;52.388;13.096;2024-03-06T05:40:04;28.97;;;14.20;;
3563;SDS011;1796;52.388;13.096;2024-03-06T05:42:34;34.00;;;15.40;;
3563;SDS011;1796;52.388;13.096;2024-03-06T05:45:01;25.90;;;13.10;;
3563;SDS011;1796;52.388;13.096;2024-03-06T05:47:36;21.00;;;13.17;;
3563;SDS011;1796;52.388;13.096;2024-03-06T05:50:04;24.40;;;13.90;;
3563;SDS011;1796;52.388;13.096;2024-03-06T05:52:31;24.50;;;12.83;;
3563;SDS011;1796;52.388;13.096;2024-03-06T05:54:59;25.97;;;13.63;;
3563;SDS011;1796;52.388;13.096;2024-03-06T05:57:26;22.93;;;14.30;;
3563;SDS011;1796;52.388;13.096;2024-03-06T05:59:52;29.40;;;13.07;;
3563;SDS011;1796;52.388;13.096;2024-03-06T06:02:19;34.43;;;13.10;;
3563;SDS011;1796;52.388;13.096;2024-03-06T06:04:48;27.53;;;13.60;;
3563;SDS011;1796;52.388;13.096;2024-03-06T06:07:16;27.90;;;15.30;;
3563;SDS011;1796;52.388;13.096;2024-03-06T06:09:44;31.43;;;14.70;;
3563;SDS011;1796;52.388;13.096;2024-03-06T06:12:10;32.37;;;17.70;;
3563;SDS011;1796;52.388;13.096;2024-03-06T06:14:37;37.57;;;14.67;;
3563;SDS011;1796;52.388;13.096;2024-03-06T06:17:04;37.93;;;16.70;;
3563;SDS011;1796;52.388;13.096;2024-03-06T06:19:31;35.03;;;15.53;;
3563;SDS011;1796;52.388;13.096;2024-03-06T06:21:59;39.17;;;21.17;;
3563;SDS011;1796;52.388;13.096;2024-03-06T06:24:26;45.97;;;21.50;;
3563;SDS011;1796;52.388;13.096;2024-03-06T06:26:53;37.77;;;18.43;;
3563;SDS011;1796;52.388;13.096;2024-03-06T06:29:20;40.73;;;19.10;;
3563;SDS011;1796;52.388;13.096;2024-03-06T06:31:47;32.63;;;17.97;;
3563;SDS011;1796;52.388;13.096;2024-03-06T06:34:14;42.50;;;20.50;;
3563;SDS011;1796;52.388;13.096;2024-03-06T06:36:44;34.67;;;17.83;;
3563;SDS011;1796;52.388;13.096;2024-03-06T06:39:13;34.80;;;18.83;;
3563;SDS011;1796;52.388;13.096;2024-03-06T06:41:41;32.60;;;18.47;;
3563;SDS011;1796;52.388;13.096;2024-03-06T06:44:09;29.07;;;17.90;;
3563;SDS011;1796;52.388;13.096;2024-03-06T06:46:35;31.70;;;18.20;;
3563;SDS011;1796;52.388;13.096;2024-03-06T06:49:02;28.53;;;17.00;;
3563;SDS011;1796;52.388;13.096;2024-03-06T06:51:29;33.53;;;14.80;;
3563;SDS011;1796;52.388;13.096;2024-03-06T06:53:56;29.63;;;16.73;;
3563;SDS011;1796;52.388;13.096;2024-03-06T06:56:24;26.37;;;15.60;;
3563;SDS011;1796;52.388;13.096;2024-03-06T06:58:54;26.03;;;13.80;;
3563;SDS011;1796;52.388;13.096;2024-03-06T07:01:21;29.77;;;14.57;;
3563;SDS011;1796;52.388;13.096;2024-03-06T07:03:48;26.73;;;14.70;;
3563;SDS011;1796;52.388;13.096;2024-03-06T07:06:16;24.20;;;12.80;;
3563;SDS011;1796;52.388;13.096;2024-03-06T07:08:43;26.73;;;15.47;;
3563;SDS011;1796;52.388;13.096;2024-03-06T07:11:10;21.10;;;14.20;;
3563;SDS011;1796;52.388;13.096;2024-03-06T07:13:38;24.03;;;13.60;;
3563;SDS011;1796;52.388;13.096;2024-03-06T07:16:06;25.90;;;15.40;;
3563;SDS011;1796;52.388;13.096;2024-03-06T07:18:34;31.90;;;13.50;;
3563;SDS011;1796;52.388;13.096;2024-03-06T07:21:01;20.90;;;14.47;;
3563;SDS011;1796;52.388;13.096;2024-03-06T07:23:28;20.70;;;13.70;;
3563;SDS011;1796;52.388;13.096;2024-03-06T07:25:55;27.00;;;14.40;;
3563;SDS011;1796;52.388;13.096;2024-03-06T07:28:22;21.13;;;14.07;;
3563;SDS011;1796;52.388;13.096;2024-03-06T07:30:51;23.60;;;13.97;;
3563;SDS011;1796;52.388;13.096;2024-03-06T07:33:18;27.67;;;14.80;;
3563;SDS011;1796;52.388;13.096;2024-03-06T07:35:45;30.63;;;15.40;;
3563;SDS011;1796;52.388;13.096;2024-03-06T07:38:12;22.93;;;14.80;;
3563;SDS011;1796;52.388;13.096;2024-03-06T07:40:40;22.90;;;15.40;;
3563;SDS011;1796;52.388;13.096;2024-03-06T07:43:07;25.67;;;15.80;;
3563;SDS011;1796;52.388;13.096;2024-03-06T07:45:34;21.87;;;15.27;;
3563;SDS011;1796;52.388;13.096;2024-03-06T07:48:02;26.33;;;14.90;;
3563;SDS011;1796;52.388;13.096;2024-03-06T07:50:30;28.03;;;15.30;;
3563;SDS011;1796;52.388;13.096;2024-03-06T07:52:56;28.03;;;15.80;;
3563;SDS011;1796;52.388;13.096;2024-03-06T07:55:24;26.47;;;16.20;;
3563;SDS011;1796;52.388;13.096;2024-03-06T07:57:51;30.80;;;16.33;;
3563;SDS011;1796;52.388;13.096;2024-03-06T08:00:19;27.27;;;16.50;;
3563;SDS011;1796;52.388;13.096;2024-03-06T08:02:46;33.00;;;15.73;;
3563;SDS011;1796;52.388;13.096;2024-03-06T08:05:16;39.80;;;16.70;;
3563;SDS011;1796;52.388;13.096;2024-03-06T08:07:43;26.50;;;16.13;;
3563;SDS011;1796;52.388;13.096;2024-03-06T08:10:12;25.80;;;16.27;;
3563;SDS011;1796;52.388;13.096;2024-03-06T08:12:39;25.47;;;16.10;;
3563;SDS011;1796;52.388;13.096;2024-03-06T08:15:07;31.90;;;16.17;;
3563;SDS011;1796;52.388;13.096;2024-03-06T08:17:36;31.53;;;16.90;;
3563;SDS011;1796;52.388;13.096;2024-03-06T08:20:05;30.13;;;16.67;;
3563;SDS011;1796;52.388;13.096;2024-03-06T08:22:35;30.20;;;16.90;;
3563;SDS011;1796;52.388;13.096;2024-03-06T08:25:04;31.20;;;17.17;;
3563;SDS011;1796;52.388;13.096;2024-03-06T08:27:33;31.40;;;17.20;;
3563;SDS011;1796;52.388;13.096;2024-03-06T08:30:00;26.30;;;15.20;;
3563;SDS011;1796;52.388;13.096;2024-03-06T08:32:29;29.10;;;17.50;;
3563;SDS011;1796;52.388;13.096;2024-03-06T08:34:56;24.73;;;16.33;;
3563;SDS011;1796;52.388;13.096;2024-03-06T08:37:24;32.13;;;15.73;;
3563;SDS011;1796;52.388;13.096;2024-03-06T08:39:52;26.23;;;16.07;;
3563;SDS011;1796;52.388;13.096;2024-03-06T08:42:19;32.60;;;17.10;;
3563;SDS011;1796;52.388;13.096;2024-03-06T08:44:46;27.17;;;18.10;;
3563;SDS011;1796;52.388;13.096;2024-03-06T08:47:13;27.90;;;16.00;;
3563;SDS011;1796;52.388;13.096;2024-03-06T08:49:39;25.80;;;17.33;;
3563;SDS011;1796;52.388;13.096;2024-03-06T08:52:06;26.00;;;16.27;;
3563;SDS011;1796;52.388;13.096;2024-03-06T08:54:34;25.33;;;16.30;;
3563;SDS011;1796;52.388;13.096;2024-03-06T08:57:03;24.07;;;16.03;;
3563;SDS011;1796;52.388;13.096;2024-03-06T08:59:30;26.70;;;16.93;;
3563;SDS011;1796;52.388;13.096;2024-03-06T09:01:58;35.63;;;16.70;;
3563;SDS011;1796;52.388;13.096;2024-03-06T09:04:37;25.33;;;15.53;;
3563;SDS011;1796;52.388;13.096;2024-03-06T09:07:04;23.50;;;14.50;;
3563;SDS011;1796;52.388;13.096;2024-03-06T09:09:31;26.83;;;14.53;;
3563;SDS011;1796;52.388;13.096;2024-03-06T09:11:58;23.30;;;14.13;;
3563;SDS011;1796;52.388;13.096;2024-03-06T09:14:27;19.93;;;13.40;;
3563;SDS011;1796;52.388;13.096;2024-03-06T09:16:54;20.97;;;13.60;;
3563;SDS011;1796;52.388;13.096;2024-03-06T09:19:20;22.20;;;12.93;;
3563;SDS011;1796;52.388;13.096;2024-03-06T09:21:48;23.50;;;13.83;;
3563;SDS011;1796;52.388;13.096;2024-03-06T09:24:15;31.03;;;13.93;;
3563;SDS011;1796;52.388;13.096;2024-03-06T09:26:43;31.80;;;13.83;;
3563;SDS011;1796;52.388;13.096;2024-03-06T09:29:10;22.53;;;13.03;;
3563;SDS011;1796;52.388;13.096;2024-03-06T09:31:38;20.20;;;13.67;;
3563;SDS011;1796;52.388;13.096;2024-03-06T09:34:05;18.60;;;12.87;;
3563;SDS011;1796;52.388;13.096;2024-03-06T09:36:32;20.33;;;12.43;;
3563;SDS011;1796;52.388;13.096;2024-03-06T09:38:59;17.60;;;11.70;;
3563;SDS011;1796;52.388;13.096;2024-03-06T09:41:26;16.70;;;11.93;;
3563;SDS011;1796;52.388;13.096;2024-03-06T09:43:53;16.50;;;10.60;;
3563;SDS011;1796;52.388;13.096;2024-03-06T09:46:20;18.53;;;12.27;;
3563;SDS011;1796;52.388;13.096;2024-03-06T09:48:49;19.53;;;12.73;;
3563;SDS011;1796;52.388;13.096;2024-03-06T09:51:18;14.63;;;10.53;;
3563;SDS011;1796;52.388;13.096;2024-03-06T09:53:46;14.20;;;10.00;;
3563;SDS011;1796;52.388;13.096;2024-03-06T09:56:14;11.10;;;7.63;;
3563;SDS011;1796;52.388;13.096;2024-03-06T09:58:42;8.83;;;7.10;;
3563;SDS011;1796;52.388;13.096;2024-03-06T10:01:08;12.00;;;7.23;;
3563;SDS011;1796;52.388;13.096;2024-03-06T10:03:37;8.27;;;6.67;;
3563;SDS011;1796;52.388;13.096;2024-03-06T10:06:07;10.83;;;6.97;;
3563;SDS011;1796;52.388;13.096;2024-03-06T10:08:34;7.70;;;5.57;;
3563;SDS011;1796;52.388;13.096;2024-03-06T10:11:03;7.73;;;6.30;;
3563;SDS011;1796;52.388;13.096;2024-03-06T10:13:31;6.23;;;5.50;;
3563;SDS011;1796;52.388;13.096;2024-03-06T10:15:59;7.90;;;5.53;;
3563;SDS011;1796;52.388;13.096;2024-03-06T10:18:27;6.13;;;5.20;;
3563;SDS011;1796;52.388;13.096;2024-03-06T10:20:54;5.97;;;5.47;;
3563;SDS011;1796;52.388;13.096;2024-03-06T10:23:22;7.83;;;6.40;;
3563;SDS011;1796;52.388;13.096;2024-03-06T10:25:50;7.63;;;5.90;;
3563;SDS011;1796;52.388;13.096;2024-03-06T10:28:18;6.60;;;6.00;;
3563;SDS011;1796;52.388;13.096;2024-03-06T10:30:47;6.90;;;6.20;;
3563;SDS011;1796;52.388;13.096;2024-03-06T10:33:14;8.40;;;6.77;;
3563;SDS011;1796;52.388;13.096;2024-03-06T10:35:44;6.00;;;5.50;;
3563;SDS011;1796;52.388;13.096;2024-03-06T10:38:13;6.77;;;5.87;;
3563;SDS011;1796;52.388;13.096;2024-03-06T10:40:42;6.40;;;5.80;;
3563;SDS011;1796;52.388;13.096;2024-03-06T10:43:10;8.53;;;6.60;;
3563;SDS011;1796;52.388;13.096;2024-03-06T10:45:41;11.40;;;6.97;;
3563;SDS011;1796;52.388;13.096;2024-03-06T10:48:13;7.50;;;5.50;;
3563;SDS011;1796;52.388;13.096;2024-03-06T10:50:41;8.83;;;5.90;;
3563;SDS011;1796;52.388;13.096;2024-03-06T10:53:09;6.70;;;5.90;;
3563;SDS011;1796;52.388;13.096;2024-03-06T10:55:38;6.83;;;5.10;;
3563;SDS011;1796;52.388;13.096;2024-03-06T10:58:07;9.33;;;5.10;;
3563;SDS011;1796;52.388;13.096;2024-03-06T11:00:35;8.30;;;5.60;;
3563;SDS011;1796;52.388;13.096;2024-03-06T11:03:04;6.53;;;5.93;;
3563;SDS011;1796;52.388;13.096;2024-03-06T11:05:33;7.87;;;6.00;;
3563;SDS011;1796;52.388;13.096;2024-03-06T11:08:01;6.10;;;5.50;;
3563;SDS011;1796;52.388;13.096;2024-03-06T11:10:32;8.07;;;6.57;;
3563;SDS011;1796;52.388;13.096;2024-03-06T11:12:59;6.60;;;5.97;;
3563;SDS011;1796;52.388;13.096;2024-03-06T11:15:29;13.77;;;7.80;;
3563;SDS011;1796;52.388;13.096;2024-03-06T11:17:57;12.03;;;9.00;;
3563;SDS011;1796;52.388;13.096;2024-03-06T11:20:23;13.00;;;8.60;;
3563;SDS011;1796;52.388;13.096;2024-03-06T11:23:02;9.90;;;7.73;;
3563;SDS011;1796;52.388;13.096;2024-03-06T11:28:29;11.60;;;7.90;;
3563;SDS011;1796;52.388;13.096;2024-03-06T11:30:58;7.53;;;6.80;;
3563;SDS011;1796;52.388;13.096;2024-03-06T11:33:36;7.20;;;6.50;;
3563;SDS011;1796;52.388;13.096;2024-03-06T11:36:13;8.13;;;7.00;;
3563;SDS011;1796;52.388;13.096;2024-03-06T11:38:42;8.07;;;6.83;;
3563;SDS011;1796;52.388;13.096;2024-03-06T11:41:12;8.90;;;6.70;;
3563;SDS011;1796;52.388;13.096;2024-03-06T11:43:41;6.80;;;6.13;;
3563;SDS011;1796;52.388;13.096;2024-03-06T11:46:10;10.40;;;7.10;;
3563;SDS011;1796;52.388;13.096;2024-03-06T11:48:38;7.37;;;6.53;;
3563;SDS011;1796;52.388;13.096;2024-03-06T11:51:05;9.30;;;6.47;;
3563;SDS011;1796;52.388;13.096;2024-03-06T11:53:33;6.60;;;6.00;;
3563;SDS011;1796;52.388;13.096;2024-03-06T11:56:00;9.50;;;6.93;;
3563;SDS011;1796;52.388;13.096;2024-03-06T11:58:27;10.17;;;7.70;;
3563;SDS011;1796;52.388;13.096;2024-03-06T12:00:54;9.20;;;6.30;;
3563;SDS011;1796;52.388;13.096;2024-03-06T12:03:22;6.50;;;5.90;;
3563;SDS011;1796;52.388;13.096;2024-03-06T12:05:50;6.83;;;6.13;;
3563;SDS011;1796;52.388;13.096;2024-03-06T12:08:17;8.20;;;6.33;;
3563;SDS011;1796;52.388;13.096;2024-03-06T12:10:45;8.10;;;6.13;;
3563;SDS011;1796;52.388;13.096;2024-03-06T12:13:13;6.40;;;5.77;;
3563;SDS011;1796;52.388;13.096;2024-03-06T12:15:42;5.90;;;5.13;;
3563;SDS011;1796;52.388;13.096;2024-03-06T12:18:10;8.83;;;5.77;;
3563;SDS011;1796;52.388;13.096;2024-03-06T12:20:41;8.90;;;6.47;;
3563;SDS011;1796;52.388;13.096;2024-03-06T12:23:18;7.30;;;5.77;;
3563;SDS011;1796;52.388;13.096;2024-03-06T12:25:46;7.17;;;6.40;;
3563;SDS011;1796;52.388;13.096;2024-03-06T12:28:13;8.00;;;6.90;;
3563;SDS011;1796;52.388;13.096;2024-03-06T12:30:41;9.73;;;7.10;;
3563;SDS011;1796;52.388;13.096;2024-03-06T12:33:09;9.80;;;7.70;;
3563;SDS011;1796;52.388;13.096;2024-03-06T12:35:39;10.07;;;7.80;;
3563;SDS011;1796;52.388;13.096;2024-03-06T12:38:11;9.33;;;7.30;;
3563;SDS011;1796;52.388;13.096;2024-03-06T12:40:39;10.27;;;8.20;;
3563;SDS011;1796;52.388;13.096;2024-03-06T12:43:06;8.80;;;7.60;;
3563;SDS011;1796;52.388;13.096;2024-03-06T12:45:34;12.43;;;8.30;;
3563;SDS011;1796;52.388;13.096;2024-03-06T12:48:02;8.97;;;7.33;;
3563;SDS011;1796;52.388;13.096;2024-03-06T12:50:31;9.40;;;6.83;;
3563;SDS011;1796;52.388;13.096;2024-03-06T12:52:59;11.97;;;7.13;;
3563;SDS011;1796;52.388;13.096;2024-03-06T12:55:29;9.40;;;8.40;;
3563;SDS011;1796;52.388;13.096;2024-03-06T12:57:56;11.07;;;9.07;;
3563;SDS011;1796;52.388;13.096;2024-03-06T13:00:23;14.13;;;8.27;;
3563;SDS011;1796;52.388;13.096;2024-03-06T13:02:50;9.63;;;8.23;;
3563;SDS011;1796;52.388;13.096;2024-03-06T13:05:17;9.50;;;8.13;;
3563;SDS011;1796;52.388;13.096;2024-03-06T13:07:44;14.20;;;8.33;;
3563;SDS011;1796;52.388;13.096;2024-03-06T13:10:13;9.10;;;7.60;;
3563;SDS011;1796;52.388;13.096;2024-03-06T13:12:40;10.07;;;7.93;;
3563;SDS011;1796;52.388;13.096;2024-03-06T13:15:08;8.83;;;7.20;;
3563;SDS011;1796;52.388;13.096;2024-03-06T13:17:35;17.13;;;7.60;;
3563;SDS011;1796;52.388;13.096;2024-03-06T13:20:02;15.50;;;9.07;;
3563;SDS011;1796;52.388;13.096;2024-03-06T13:22:29;15.17;;;8.77;;
3563;SDS011;1796;52.388;13.096;2024-03-06T13:24:56;13.43;;;9.43;;
3563;SDS011;1796;52.388;13.096;2024-03-06T13:27:25;11.50;;;8.20;;
3563;SDS011;1796;52.388;13.096;2024-03-06T13:29:52;11.00;;;8.37;;
3563;SDS011;1796;52.388;13.096;2024-03-06T13:32:19;12.77;;;7.93;;
3563;SDS011;1796;52.388;13.096;2024-03-06T13:34:46;9.53;;;7.80;;
3563;SDS011;1796;52.388;13.096;2024-03-06T13:37:13;9.93;;;8.43;;
3563;SDS011;1796;52.388;13.096;2024-03-06T13:39:40;15.40;;;7.20;;
3563;SDS011;1796;52.388;13.096;2024-03-06T13:42:07;10.37;;;7.10;;
3563;SDS011;1796;52.388;13.096;2024-03-06T13:44:36;11.53;;;7.77;;
3563;SDS011;1796;52.388;13.096;2024-03-06T13:47:03;13.20;;;8.23;;
3563;SDS011;1796;52.388;13.096;2024-03-06T13:49:39;12.07;;;8.43;;
3563;SDS011;1796;52.388;13.096;2024-03-06T13:52:07;11.47;;;8.27;;
3563;SDS011;1796;52.388;13.096;2024-03-06T13:54:37;8.13;;;7.00;;
3563;SDS011;1796;52.388;13.096;2024-03-06T13:57:04;9.27;;;7.67;;
3563;SDS011;1796;52.388;13.096;2024-03-06T13:59:31;8.43;;;7.63;;
3563;SDS011;1796;52.388;13.096;2024-03-06T14:02:01;12.37;;;8.03;;
3563;SDS011;1796;52.388;13.096;2024-03-06T14:04:29;10.93;;;7.77;;
3563;SDS011;1796;52.388;13.096;2024-03-06T14:06:56;9.10;;;7.83;;
3563;SDS011;1796;52.388;13.096;2024-03-06T14:09:23;9.67;;;8.10;;
3563;SDS011;1796;52.388;13.096;2024-03-06T14:11:50;9.10;;;7.70;;
3563;SDS011;1796;52.388;13.096;2024-03-06T14:14:17;9.27;;;7.67;;
3563;SDS011;1796;52.388;13.096;2024-03-06T14:16:45;11.50;;;8.47;;
3563;SDS011;1796;52.388;13.096;2024-03-06T14:19:14;14.43;;;7.73;;
3563;SDS011;1796;52.388;13.096;2024-03-06T14:21:41;10.63;;;8.80;;
3563;SDS011;1796;52.388;13.096;2024-03-06T14:24:08;14.03;;;8.43;;
3563;SDS011;1796;52.388;13.096;2024-03-06T14:26:35;13.73;;;9.10;;
3563;SDS011;1796;52.388;13.096;2024-03-06T14:29:02;15.17;;;9.63;;
3563;SDS011;1796;52.388;13.096;2024-03-06T14:31:31;15.80;;;10.13;;
3563;SDS011;1796;52.388;13.096;2024-03-06T14:33:58;17.67;;;9.13;;
3563;SDS011;1796;52.388;13.096;2024-03-06T14:36:26;14.20;;;8.83;;
3563;SDS011;1796;52.388;13.096;2024-03-06T14:38:53;25.63;;;9.20;;
3563;SDS011;1796;52.388;13.096;2024-03-06T14:41:20;13.73;;;9.87;;
3563;SDS011;1796;52.388;13.096;2024-03-06T14:43:47;20.73;;;9.17;;
3563;SDS011;1796;52.388;13.096;2024-03-06T14:46:14;16.93;;;9.10;;